HGO901P BIKF-EGFF
Flight info
| Callsign | HGO901P |
|---|---|
| Flight time | N/A |
| Altitude | 33000 |
| Route | RIMUM1A RIMUM DCT RUMUX DCT RAPAX DCT 60N015W DCT GOMUP/N0478F330 DCT GINGA DCT ERNAN DCT BUNED DCT ENJEX DCT ADHAV/N0442F230 P70 AGCAT Q63 BAJJA |
| Aircraft | B77L/H-SDE1E2E3FGHIJ2J3J4J5M1RWXY/LB1D1 |
Departure
| Time | 2026-05-04 14:35 |
|---|---|
| Airport | Keflavik International Airport (BIKF) |
Arrival
| Time | N/A |
|---|---|
| Airport | Cardiff International Airport (EGFF) |
| Time | Latitude | Longitude | Altitude | Speed | Heading |
|---|---|---|---|---|---|
| 2026-05-04 14:11 | 63.99406 | -22.62907 | 185 ft | 0 kts | 270° |
| 2026-05-04 14:21 | 63.99405 | -22.62864 | 196 ft | 4 kts | 270° |
| 2026-05-04 14:21 | 63.99405 | -22.62804 | 201 ft | 3 kts | 270° |
| 2026-05-04 14:22 | 63.99406 | -22.62754 | 201 ft | 4 kts | 254° |
| 2026-05-04 14:22 | 63.99416 | -22.62706 | 202 ft | 4 kts | 221° |
| 2026-05-04 14:22 | 63.99438 | -22.62675 | 201 ft | 4 kts | 202° |
| 2026-05-04 14:22 | 63.99448 | -22.62666 | 201 ft | 0 kts | 202° |
| 2026-05-04 14:25 | 63.99410 | -22.62703 | 191 ft | 8 kts | 204° |
| 2026-05-04 14:25 | 63.99358 | -22.62750 | 198 ft | 8 kts | 194° |
| 2026-05-04 14:26 | 63.99303 | -22.62755 | 191 ft | 8 kts | 180° |
| 2026-05-04 14:26 | 63.99251 | -22.62715 | 197 ft | 8 kts | 148° |
| 2026-05-04 14:26 | 63.99197 | -22.62684 | 200 ft | 8 kts | 166° |
| 2026-05-04 14:26 | 63.99172 | -22.62580 | 190 ft | 8 kts | 96° |
| 2026-05-04 14:27 | 63.99171 | -22.62447 | 185 ft | 11 kts | 90° |
| 2026-05-04 14:27 | 63.99172 | -22.62195 | 184 ft | 22 kts | 89° |
| 2026-05-04 14:27 | 63.99170 | -22.61769 | 184 ft | 28 kts | 91° |
| 2026-05-04 14:27 | 63.99170 | -22.61317 | 184 ft | 28 kts | 90° |
| 2026-05-04 14:28 | 63.99148 | -22.60974 | 196 ft | 15 kts | 144° |
| 2026-05-04 14:28 | 63.99036 | -22.60950 | 199 ft | 20 kts | 180° |
| 2026-05-04 14:28 | 63.98879 | -22.60951 | 199 ft | 23 kts | 180° |
| 2026-05-04 14:28 | 63.98718 | -22.60952 | 199 ft | 23 kts | 180° |
| 2026-05-04 14:29 | 63.98451 | -22.60947 | 183 ft | 23 kts | 179° |
| 2026-05-04 14:29 | 63.98128 | -22.60952 | 191 ft | 23 kts | 180° |
| 2026-05-04 14:30 | 63.97967 | -22.60954 | 188 ft | 23 kts | 180° |
| 2026-05-04 14:30 | 63.97753 | -22.60956 | 185 ft | 23 kts | 180° |
| 2026-05-04 14:30 | 63.97483 | -22.60951 | 189 ft | 23 kts | 179° |
| 2026-05-04 14:31 | 63.97321 | -22.60951 | 193 ft | 23 kts | 180° |
| 2026-05-04 14:31 | 63.96999 | -22.60952 | 196 ft | 23 kts | 180° |
| 2026-05-04 14:32 | 63.96677 | -22.60953 | 190 ft | 23 kts | 180° |
| 2026-05-04 14:32 | 63.96546 | -22.60952 | 187 ft | 11 kts | 179° |
| 2026-05-04 14:32 | 63.96488 | -22.60936 | 192 ft | 4 kts | 154° |
| 2026-05-04 14:32 | 63.96471 | -22.60890 | 197 ft | 5 kts | 116° |
| 2026-05-04 14:33 | 63.96463 | -22.60735 | 196 ft | 12 kts | 91° |
| 2026-05-04 14:33 | 63.96481 | -22.60564 | 183 ft | 12 kts | 35° |
| 2026-05-04 14:33 | 63.96514 | -22.60553 | 184 ft | 0 kts | 359° |
| 2026-05-04 14:34 | 63.96520 | -22.60553 | 184 ft | 7 kts | 359° |
| 2026-05-04 14:35 | 63.96735 | -22.60555 | 199 ft | 64 kts | 360° |
| 2026-05-04 14:35 | 63.97413 | -22.60555 | 189 ft | 128 kts | 360° |
| 2026-05-04 14:35 | 63.98470 | -22.60555 | 294 ft | 165 kts | 360° |
| 2026-05-04 14:35 | 63.99562 | -22.60549 | 1099 ft | 152 kts | 1° |
| 2026-05-04 14:36 | 64.00617 | -22.60502 | 1588 ft | 160 kts | 2° |
| 2026-05-04 14:36 | 64.01752 | -22.60430 | 2043 ft | 171 kts | 2° |
| 2026-05-04 14:36 | 64.03001 | -22.60152 | 2230 ft | 190 kts | 17° |
| 2026-05-04 14:36 | 64.04251 | -22.58777 | 2537 ft | 213 kts | 32° |
| 2026-05-04 14:37 | 64.05434 | -22.56466 | 2835 ft | 230 kts | 40° |
| 2026-05-04 14:37 | 64.06659 | -22.54021 | 3279 ft | 239 kts | 49° |
| 2026-05-04 14:37 | 64.07276 | -22.50459 | 3828 ft | 250 kts | 85° |
| 2026-05-04 14:37 | 64.07227 | -22.46441 | 4405 ft | 256 kts | 92° |
| 2026-05-04 14:38 | 64.06671 | -22.42545 | 4942 ft | 268 kts | 126° |
| 2026-05-04 14:38 | 64.05190 | -22.39995 | 5635 ft | 274 kts | 162° |
| 2026-05-04 14:38 | 64.03301 | -22.39619 | 6257 ft | 274 kts | 185° |
| 2026-05-04 14:38 | 64.01376 | -22.39377 | 6740 ft | 283 kts | 171° |
| 2026-05-04 14:39 | 63.99446 | -22.38455 | 7440 ft | 285 kts | 168° |
| 2026-05-04 14:39 | 63.97502 | -22.37402 | 8097 ft | 289 kts | 168° |
| 2026-05-04 14:39 | 63.95553 | -22.36356 | 8721 ft | 294 kts | 169° |
| 2026-05-04 14:40 | 63.91490 | -22.34263 | 10004 ft | 304 kts | 170° |
| 2026-05-04 14:40 | 63.89408 | -22.33219 | 10543 ft | 311 kts | 171° |
| 2026-05-04 14:40 | 63.87226 | -22.32142 | 10754 ft | 332 kts | 171° |
| 2026-05-04 14:40 | 63.84897 | -22.30999 | 10940 ft | 354 kts | 171° |
| 2026-05-04 14:41 | 63.82416 | -22.29784 | 11118 ft | 376 kts | 171° |
| 2026-05-04 14:41 | 63.79805 | -22.28506 | 11494 ft | 391 kts | 171° |
| 2026-05-04 14:41 | 63.74353 | -22.25832 | 12824 ft | 407 kts | 172° |
| 2026-05-04 14:42 | 63.68724 | -22.23097 | 14316 ft | 420 kts | 173° |
| 2026-05-04 14:42 | 63.65844 | -22.21704 | 15003 ft | 425 kts | 174° |
| 2026-05-04 14:42 | 63.62937 | -22.20298 | 15714 ft | 429 kts | 174° |
| 2026-05-04 14:43 | 63.60001 | -22.18878 | 16421 ft | 434 kts | 174° |
| 2026-05-04 14:43 | 63.57033 | -22.17446 | 17125 ft | 438 kts | 174° |
| 2026-05-04 14:43 | 63.54072 | -22.16024 | 17803 ft | 443 kts | 174° |
| 2026-05-04 14:43 | 63.51065 | -22.14262 | 18455 ft | 453 kts | 166° |
| 2026-05-04 14:44 | 63.48140 | -22.11433 | 18970 ft | 463 kts | 160° |
| 2026-05-04 14:44 | 63.45237 | -22.08232 | 19558 ft | 468 kts | 159° |